Airfield :
LOGIN :

Register | Disclaimer

   EN    FR    IT 

 










Legend :    VFR   Marginal VFR   IFR   Intensive IFR   Very Intensive IFR
Visi :
Ceiling :
>= 8 km
>= 3000ft
5 to 8 km
1000 to 3000 ft
1500m to 5 km
500 to 1000 ft
800 to 1500m
200 to 500 ft
< 800m
< 200 ft
Symbols :   Thunderstorms  Fog  Heavy snow  Heavy precipitations  Wind > 20 kt
SIGMETs :     Misc.  Thunderstorms  Icing  Turbulence  Mountain Waves  Volcanic Ashes






- Airport Elevation : 13 ft
- IATA code : SNR


LFRZ - St-Nazaire

CURRENT METAR :
  • 091430Z AUTO 30010G20KT 260V340 9999 FEW040 12/06 Q1023 NOSIG

EXPIRED METARs :
  • 091400Z AUTO 30010G20KT 270V360 9999 SCT038 12/06 Q1022 TEMPO 29020G30KT 4000 SHRA BKN030TCU
  • 091330Z AUTO 31012KT 260V360 9999 BKN043 12/05 Q1022 TEMPO 29020G30KT 4000 SHRA BKN030TCU
  • 091300Z AUTO 30014G29KT 270V340 9999 FEW040 BKN046 BKN052 13/05 Q1021 TEMPO 4000 SHRA BKN030TCU
  • 091230Z AUTO 29013KT 270V340 9999 BKN040 BKN046 12/06 Q1021 TEMPO 29020G30KT 4000 SHRA BKN030TCU
  • 091200Z AUTO 29016G28KT 260V330 9999 BKN038 BKN045 12/06 Q1021 TEMPO 4000 SHRA BKN030TCU

TAF TAF LFRZ
Valid from the 09 at 12:00 until the 10 at 12:00 UTC


091100Z 0912/1012 29013KT 9999 BKN030
PROB30
TEMPO 0912/0915 29020G30KT 4000 SHRA BKN030TCU
BECMG 0922/0924 VRB04KT
TEMPO 1000/1008 3000 BR
PROB30
TEMPO 1002/1006 0600 FG VV///
BECMG 1007/1010 18010KT



MET'MAP, your aeronautical weather chart ! - Copyright ORBIFLY December 2007 - Disclaimer

ORBIFLY MET'MAP TEAM :

Programming & Development : Alexandra Zaïnal
Concept & original design : Baudouin d'Aumeries
Assistance for programming : Marc-Olivier Méhu
Technical & hardware support : Manuel Goepfert

Contact : metmap@orbifly.com




SOURCES & CREDITS :

   NOAA